sensor_id;sensor_type;location;lat;lon;timestamp;temperature;humidity
60848;DHT22;46681;47.696;9.140;2023-06-05T00:00:25;19.60;44.00
60848;DHT22;46681;47.696;9.140;2023-06-05T00:02:51;19.60;44.10
60848;DHT22;46681;47.696;9.140;2023-06-05T00:05:17;19.50;44.10
60848;DHT22;46681;47.696;9.140;2023-06-05T00:07:43;19.50;43.90
60848;DHT22;46681;47.696;9.140;2023-06-05T00:10:09;19.50;44.20
60848;DHT22;46681;47.696;9.140;2023-06-05T00:12:35;19.50;44.20
60848;DHT22;46681;47.696;9.140;2023-06-05T00:15:01;19.40;44.30
60848;DHT22;46681;47.696;9.140;2023-06-05T00:17:27;19.40;44.30
60848;DHT22;46681;47.696;9.140;2023-06-05T00:19:52;19.40;44.30
60848;DHT22;46681;47.696;9.140;2023-06-05T00:22:18;19.40;44.40
60848;DHT22;46681;47.696;9.140;2023-06-05T00:24:43;19.30;44.30
60848;DHT22;46681;47.696;9.140;2023-06-05T00:27:09;19.30;44.40
60848;DHT22;46681;47.696;9.140;2023-06-05T00:29:34;19.20;44.40
60848;DHT22;46681;47.696;9.140;2023-06-05T00:32:00;19.20;44.40
60848;DHT22;46681;47.696;9.140;2023-06-05T00:34:28;19.20;44.40
60848;DHT22;46681;47.696;9.140;2023-06-05T00:36:54;19.20;44.60
60848;DHT22;46681;47.696;9.140;2023-06-05T00:39:19;19.20;44.50
60848;DHT22;46681;47.696;9.140;2023-06-05T00:41:45;19.10;44.60
60848;DHT22;46681;47.696;9.140;2023-06-05T00:44:11;19.10;44.50
60848;DHT22;46681;47.696;9.140;2023-06-05T00:46:38;19.10;44.70
60848;DHT22;46681;47.696;9.140;2023-06-05T00:49:04;19.00;44.60
60848;DHT22;46681;47.696;9.140;2023-06-05T00:51:30;19.00;44.70
60848;DHT22;46681;47.696;9.140;2023-06-05T00:53:55;19.00;44.70
60848;DHT22;46681;47.696;9.140;2023-06-05T00:56:21;18.90;44.80
60848;DHT22;46681;47.696;9.140;2023-06-05T00:58:49;18.90;44.80
60848;DHT22;46681;47.696;9.140;2023-06-05T01:01:15;18.90;44.80
60848;DHT22;46681;47.696;9.140;2023-06-05T01:03:43;18.80;44.70
60848;DHT22;46681;47.696;9.140;2023-06-05T01:06:09;18.80;44.90
60848;DHT22;46681;47.696;9.140;2023-06-05T01:08:35;18.80;44.90
60848;DHT22;46681;47.696;9.140;2023-06-05T01:11:01;18.80;44.80
60848;DHT22;46681;47.696;9.140;2023-06-05T01:13:32;18.70;44.70
60848;DHT22;46681;47.696;9.140;2023-06-05T01:15:59;18.70;45.00
60848;DHT22;46681;47.696;9.140;2023-06-05T01:18:25;18.70;44.90
60848;DHT22;46681;47.696;9.140;2023-06-05T01:20:51;18.70;45.00
60848;DHT22;46681;47.696;9.140;2023-06-05T01:23:16;18.60;44.80
60848;DHT22;46681;47.696;9.140;2023-06-05T01:25:44;18.60;45.00
60848;DHT22;46681;47.696;9.140;2023-06-05T01:28:16;18.60;44.90
60848;DHT22;46681;47.696;9.140;2023-06-05T01:33:24;18.50;44.90
60848;DHT22;46681;47.696;9.140;2023-06-05T01:35:52;18.50;44.80
60848;DHT22;46681;47.696;9.140;2023-06-05T01:38:18;18.50;45.00
60848;DHT22;46681;47.696;9.140;2023-06-05T01:40:45;18.40;45.00
60848;DHT22;46681;47.696;9.140;2023-06-05T01:43:12;18.40;45.00
60848;DHT22;46681;47.696;9.140;2023-06-05T01:45:38;18.40;45.00
60848;DHT22;46681;47.696;9.140;2023-06-05T01:48:05;18.40;45.00
60848;DHT22;46681;47.696;9.140;2023-06-05T01:50:33;18.40;45.00
60848;DHT22;46681;47.696;9.140;2023-06-05T01:53:01;18.40;45.10
60848;DHT22;46681;47.696;9.140;2023-06-05T01:55:26;18.30;45.00
60848;DHT22;46681;47.696;9.140;2023-06-05T01:57:52;18.30;45.00
60848;DHT22;46681;47.696;9.140;2023-06-05T02:00:18;18.30;45.10
60848;DHT22;46681;47.696;9.140;2023-06-05T02:02:44;18.30;45.20
60848;DHT22;46681;47.696;9.140;2023-06-05T02:11:29;18.20;45.10
60848;DHT22;46681;47.696;9.140;2023-06-05T02:13:57;18.10;45.10
60848;DHT22;46681;47.696;9.140;2023-06-05T02:16:23;18.10;45.10
60848;DHT22;46681;47.696;9.140;2023-06-05T02:18:52;18.10;45.00
60848;DHT22;46681;47.696;9.140;2023-06-05T02:21:18;18.10;45.10
60848;DHT22;46681;47.696;9.140;2023-06-05T02:23:44;18.10;45.10
60848;DHT22;46681;47.696;9.140;2023-06-05T02:26:14;18.00;45.00
60848;DHT22;46681;47.696;9.140;2023-06-05T02:28:42;18.00;45.10
60848;DHT22;46681;47.696;9.140;2023-06-05T02:31:07;18.00;45.10
60848;DHT22;46681;47.696;9.140;2023-06-05T02:33:35;18.00;45.20
60848;DHT22;46681;47.696;9.140;2023-06-05T02:36:01;17.90;45.20
60848;DHT22;46681;47.696;9.140;2023-06-05T02:38:27;17.90;45.20
60848;DHT22;46681;47.696;9.140;2023-06-05T02:40:52;17.90;45.30
60848;DHT22;46681;47.696;9.140;2023-06-05T02:43:18;17.80;45.30
60848;DHT22;46681;47.696;9.140;2023-06-05T02:45:44;17.80;45.20
60848;DHT22;46681;47.696;9.140;2023-06-05T02:48:10;17.80;45.20
60848;DHT22;46681;47.696;9.140;2023-06-05T02:50:37;17.80;45.20
60848;DHT22;46681;47.696;9.140;2023-06-05T02:53:02;17.80;45.30
60848;DHT22;46681;47.696;9.140;2023-06-05T02:55:28;17.80;45.40
60848;DHT22;46681;47.696;9.140;2023-06-05T02:57:53;17.70;45.30
60848;DHT22;46681;47.696;9.140;2023-06-05T03:00:19;17.70;45.40
60848;DHT22;46681;47.696;9.140;2023-06-05T03:02:45;17.70;45.30
60848;DHT22;46681;47.696;9.140;2023-06-05T03:05:13;17.70;45.40
60848;DHT22;46681;47.696;9.140;2023-06-05T03:07:39;17.60;45.30
60848;DHT22;46681;47.696;9.140;2023-06-05T03:10:06;17.60;45.30
60848;DHT22;46681;47.696;9.140;2023-06-05T03:12:31;17.60;45.50
60848;DHT22;46681;47.696;9.140;2023-06-05T03:14:58;17.60;45.80
60848;DHT22;46681;47.696;9.140;2023-06-05T03:17:23;17.60;46.00
60848;DHT22;46681;47.696;9.140;2023-06-05T03:19:48;17.60;46.10
60848;DHT22;46681;47.696;9.140;2023-06-05T03:22:15;17.60;46.20
60848;DHT22;46681;47.696;9.140;2023-06-05T03:24:41;17.60;46.40
60848;DHT22;46681;47.696;9.140;2023-06-05T03:27:09;17.60;46.50
60848;DHT22;46681;47.696;9.140;2023-06-05T03:29:39;17.60;46.50
60848;DHT22;46681;47.696;9.140;2023-06-05T03:32:04;17.60;46.20
60848;DHT22;46681;47.696;9.140;2023-06-05T03:34:30;17.60;46.20
60848;DHT22;46681;47.696;9.140;2023-06-05T03:36:58;17.60;46.20
60848;DHT22;46681;47.696;9.140;2023-06-05T03:39:26;17.50;46.80
60848;DHT22;46681;47.696;9.140;2023-06-05T03:41:52;17.50;46.20
60848;DHT22;46681;47.696;9.140;2023-06-05T03:44:17;17.50;46.30
60848;DHT22;46681;47.696;9.140;2023-06-05T03:46:45;17.50;46.30
60848;DHT22;46681;47.696;9.140;2023-06-05T03:49:12;17.50;46.20
60848;DHT22;46681;47.696;9.140;2023-06-05T03:51:40;17.40;46.10
60848;DHT22;46681;47.696;9.140;2023-06-05T03:54:06;17.40;46.10
60848;DHT22;46681;47.696;9.140;2023-06-05T03:56:33;17.40;46.20
60848;DHT22;46681;47.696;9.140;2023-06-05T03:58:58;17.40;46.30
60848;DHT22;46681;47.696;9.140;2023-06-05T04:01:24;17.40;46.20
60848;DHT22;46681;47.696;9.140;2023-06-05T04:03:49;17.30;46.20
60848;DHT22;46681;47.696;9.140;2023-06-05T04:06:15;17.30;46.60
60848;DHT22;46681;47.696;9.140;2023-06-05T04:08:45;17.30;46.30
60848;DHT22;46681;47.696;9.140;2023-06-05T04:11:13;17.30;46.20
60848;DHT22;46681;47.696;9.140;2023-06-05T04:13:39;17.30;46.30
60848;DHT22;46681;47.696;9.140;2023-06-05T04:16:04;17.30;46.30
60848;DHT22;46681;47.696;9.140;2023-06-05T04:18:30;17.30;46.20
60848;DHT22;46681;47.696;9.140;2023-06-05T04:20:55;17.30;46.40
60848;DHT22;46681;47.696;9.140;2023-06-05T04:23:21;17.20;46.30
60848;DHT22;46681;47.696;9.140;2023-06-05T04:25:46;17.20;46.40
60848;DHT22;46681;47.696;9.140;2023-06-05T04:28:12;17.20;46.30
60848;DHT22;46681;47.696;9.140;2023-06-05T04:30:39;17.20;46.30
60848;DHT22;46681;47.696;9.140;2023-06-05T04:33:05;17.20;46.30
60848;DHT22;46681;47.696;9.140;2023-06-05T04:35:32;17.20;46.30
60848;DHT22;46681;47.696;9.140;2023-06-05T04:37:59;17.20;46.30
60848;DHT22;46681;47.696;9.140;2023-06-05T04:40:27;17.20;46.40
60848;DHT22;46681;47.696;9.140;2023-06-05T04:42:52;17.20;46.40
60848;DHT22;46681;47.696;9.140;2023-06-05T04:45:21;17.20;46.40
60848;DHT22;46681;47.696;9.140;2023-06-05T04:47:46;17.20;46.50
60848;DHT22;46681;47.696;9.140;2023-06-05T04:50:23;17.20;46.40
60848;DHT22;46681;47.696;9.140;2023-06-05T04:52:48;17.20;46.50
60848;DHT22;46681;47.696;9.140;2023-06-05T04:55:15;17.20;46.50
60848;DHT22;46681;47.696;9.140;2023-06-05T04:57:40;17.20;46.50
60848;DHT22;46681;47.696;9.140;2023-06-05T05:00:08;17.20;46.50
60848;DHT22;46681;47.696;9.140;2023-06-05T05:02:36;17.20;46.60
60848;DHT22;46681;47.696;9.140;2023-06-05T05:05:05;17.20;46.50
60848;DHT22;46681;47.696;9.140;2023-06-05T05:07:33;17.20;46.60
60848;DHT22;46681;47.696;9.140;2023-06-05T05:09:58;17.20;46.60
60848;DHT22;46681;47.696;9.140;2023-06-05T05:12:26;17.20;46.60
60848;DHT22;46681;47.696;9.140;2023-06-05T05:14:52;17.30;46.60
60848;DHT22;46681;47.696;9.140;2023-06-05T05:17:19;17.30;46.60
60848;DHT22;46681;47.696;9.140;2023-06-05T05:19:46;17.30;46.70
60848;DHT22;46681;47.696;9.140;2023-06-05T05:22:11;17.30;46.60
60848;DHT22;46681;47.696;9.140;2023-06-05T05:24:38;17.30;46.80
60848;DHT22;46681;47.696;9.140;2023-06-05T05:27:06;17.30;46.70
60848;DHT22;46681;47.696;9.140;2023-06-05T05:29:37;17.30;46.80
60848;DHT22;46681;47.696;9.140;2023-06-05T05:32:03;17.40;46.90
60848;DHT22;46681;47.696;9.140;2023-06-05T05:34:29;17.40;46.80
60848;DHT22;46681;47.696;9.140;2023-06-05T05:36:59;17.40;46.80
60848;DHT22;46681;47.696;9.140;2023-06-05T05:39:25;17.50;46.70
60848;DHT22;46681;47.696;9.140;2023-06-05T05:41:53;17.50;46.70
60848;DHT22;46681;47.696;9.140;2023-06-05T05:44:23;17.50;46.70
60848;DHT22;46681;47.696;9.140;2023-06-05T05:46:49;17.60;46.70
60848;DHT22;46681;47.696;9.140;2023-06-05T05:49:21;17.60;46.70
60848;DHT22;46681;47.696;9.140;2023-06-05T05:51:47;17.60;46.60
60848;DHT22;46681;47.696;9.140;2023-06-05T05:54:13;17.60;46.50
60848;DHT22;46681;47.696;9.140;2023-06-05T05:56:41;17.60;46.40
60848;DHT22;46681;47.696;9.140;2023-06-05T05:59:08;17.70;46.40
60848;DHT22;46681;47.696;9.140;2023-06-05T06:01:35;17.70;46.30
60848;DHT22;46681;47.696;9.140;2023-06-05T06:04:00;17.70;46.20
60848;DHT22;46681;47.696;9.140;2023-06-05T06:06:26;17.80;46.20
60848;DHT22;46681;47.696;9.140;2023-06-05T06:08:53;17.80;46.10
60848;DHT22;46681;47.696;9.140;2023-06-05T06:11:24;17.80;46.00
60848;DHT22;46681;47.696;9.140;2023-06-05T06:13:49;17.90;46.00
60848;DHT22;46681;47.696;9.140;2023-06-05T06:16:15;17.90;45.90
60848;DHT22;46681;47.696;9.140;2023-06-05T06:18:41;17.90;45.90
60848;DHT22;46681;47.696;9.140;2023-06-05T06:21:12;18.00;45.90
60848;DHT22;46681;47.696;9.140;2023-06-05T06:23:45;18.00;45.80
60848;DHT22;46681;47.696;9.140;2023-06-05T06:26:11;18.00;45.80
60848;DHT22;46681;47.696;9.140;2023-06-05T06:28:42;18.00;45.60
60848;DHT22;46681;47.696;9.140;2023-06-05T06:31:08;18.10;45.50
60848;DHT22;46681;47.696;9.140;2023-06-05T06:33:46;18.20;45.50
60848;DHT22;46681;47.696;9.140;2023-06-05T06:36:17;18.20;45.50
60848;DHT22;46681;47.696;9.140;2023-06-05T06:38:44;18.30;45.50
60848;DHT22;46681;47.696;9.140;2023-06-05T06:41:10;18.40;45.50
60848;DHT22;46681;47.696;9.140;2023-06-05T06:43:38;18.40;46.10
60848;DHT22;46681;47.696;9.140;2023-06-05T06:46:14;18.50;45.60
60848;DHT22;46681;47.696;9.140;2023-06-05T06:48:52;18.60;45.30
60848;DHT22;46681;47.696;9.140;2023-06-05T06:51:20;18.70;45.10
60848;DHT22;46681;47.696;9.140;2023-06-05T06:53:49;18.80;45.00
60848;DHT22;46681;47.696;9.140;2023-06-05T06:56:18;18.90;44.90
60848;DHT22;46681;47.696;9.140;2023-06-05T06:58:44;18.90;44.70
60848;DHT22;46681;47.696;9.140;2023-06-05T07:01:10;19.00;44.50
60848;DHT22;46681;47.696;9.140;2023-06-05T07:03:44;19.10;44.40
60848;DHT22;46681;47.696;9.140;2023-06-05T07:06:13;19.20;44.60
60848;DHT22;46681;47.696;9.140;2023-06-05T07:08:41;19.30;44.10
60848;DHT22;46681;47.696;9.140;2023-06-05T07:11:15;19.40;44.00
60848;DHT22;46681;47.696;9.140;2023-06-05T07:13:55;19.40;43.90
60848;DHT22;46681;47.696;9.140;2023-06-05T07:16:21;19.50;44.20
60848;DHT22;46681;47.696;9.140;2023-06-05T07:18:46;19.60;44.10
60848;DHT22;46681;47.696;9.140;2023-06-05T07:21:12;19.60;44.00
60848;DHT22;46681;47.696;9.140;2023-06-05T07:23:43;19.70;44.00
60848;DHT22;46681;47.696;9.140;2023-06-05T07:26:09;19.80;44.00
60848;DHT22;46681;47.696;9.140;2023-06-05T07:28:39;19.90;43.80
60848;DHT22;46681;47.696;9.140;2023-06-05T07:31:08;20.00;43.70
60848;DHT22;46681;47.696;9.140;2023-06-05T07:33:35;20.10;43.50
60848;DHT22;46681;47.696;9.140;2023-06-05T07:36:04;20.20;43.30
60848;DHT22;46681;47.696;9.140;2023-06-05T07:38:33;20.30;43.10
60848;DHT22;46681;47.696;9.140;2023-06-05T07:41:00;20.50;43.00
60848;DHT22;46681;47.696;9.140;2023-06-05T07:43:30;20.60;42.90
60848;DHT22;46681;47.696;9.140;2023-06-05T07:46:03;20.70;42.90
60848;DHT22;46681;47.696;9.140;2023-06-05T07:48:46;20.80;42.70
60848;DHT22;46681;47.696;9.140;2023-06-05T07:51:22;21.00;42.70
60848;DHT22;46681;47.696;9.140;2023-06-05T07:54:08;21.10;42.50
60848;DHT22;46681;47.696;9.140;2023-06-05T07:56:49;21.20;42.40
60848;DHT22;46681;47.696;9.140;2023-06-05T07:59:21;21.40;42.50
60848;DHT22;46681;47.696;9.140;2023-06-05T08:02:01;21.50;42.40
60848;DHT22;46681;47.696;9.140;2023-06-05T08:04:38;21.60;42.30
60848;DHT22;46681;47.696;9.140;2023-06-05T08:07:04;21.70;42.20
60848;DHT22;46681;47.696;9.140;2023-06-05T08:09:34;21.80;42.00
60848;DHT22;46681;47.696;9.140;2023-06-05T08:11:59;22.00;41.90
60848;DHT22;46681;47.696;9.140;2023-06-05T08:14:39;22.10;41.80
60848;DHT22;46681;47.696;9.140;2023-06-05T08:17:08;22.20;41.70
60848;DHT22;46681;47.696;9.140;2023-06-05T08:22:56;22.50;41.50
60848;DHT22;46681;47.696;9.140;2023-06-05T08:25:39;22.70;41.50
60848;DHT22;46681;47.696;9.140;2023-06-05T08:28:06;22.80;41.40
60848;DHT22;46681;47.696;9.140;2023-06-05T08:30:40;22.90;41.30
60848;DHT22;46681;47.696;9.140;2023-06-05T08:33:09;23.00;41.20
60848;DHT22;46681;47.696;9.140;2023-06-05T08:39:12;23.30;41.20
60848;DHT22;46681;47.696;9.140;2023-06-05T08:44:40;23.50;41.10
60848;DHT22;46681;47.696;9.140;2023-06-05T08:47:18;23.60;41.10
60848;DHT22;46681;47.696;9.140;2023-06-05T08:50:19;23.80;40.90
60848;DHT22;46681;47.696;9.140;2023-06-05T08:53:05;24.00;40.60
60848;DHT22;46681;47.696;9.140;2023-06-05T09:02:07;24.40;40.40
60848;DHT22;46681;47.696;9.140;2023-06-05T09:17:12;25.10;40.10
60848;DHT22;46681;47.696;9.140;2023-06-05T09:20:30;25.30;40.10
60848;DHT22;46681;47.696;9.140;2023-06-05T09:26:13;25.60;40.00
60848;DHT22;46681;47.696;9.140;2023-06-05T09:29:03;25.70;39.90
60848;DHT22;46681;47.696;9.140;2023-06-05T09:59:07;27.10;39.50
60848;DHT22;46681;47.696;9.140;2023-06-05T10:22:57;28.00;39.00
60848;DHT22;46681;47.696;9.140;2023-06-05T10:32:22;28.50;38.80
60848;DHT22;46681;47.696;9.140;2023-06-05T10:38:31;28.60;38.60
60848;DHT22;46681;47.696;9.140;2023-06-05T10:41:10;28.60;38.60
60848;DHT22;46681;47.696;9.140;2023-06-05T10:43:58;28.80;38.60
60848;DHT22;46681;47.696;9.140;2023-06-05T10:46:56;29.00;38.40
60848;DHT22;46681;47.696;9.140;2023-06-05T11:30:10;30.40;37.50
60848;DHT22;46681;47.696;9.140;2023-06-05T11:36:22;30.80;37.10
60848;DHT22;46681;47.696;9.140;2023-06-05T12:18:56;31.20;37.10
60848;DHT22;46681;47.696;9.140;2023-06-05T12:27:58;31.40;36.90
60848;DHT22;46681;47.696;9.140;2023-06-05T12:45:46;31.60;38.20
60848;DHT22;46681;47.696;9.140;2023-06-05T13:01:01;29.10;40.50
60848;DHT22;46681;47.696;9.140;2023-06-05T13:03:53;29.00;40.00
60848;DHT22;46681;47.696;9.140;2023-06-05T13:09:49;29.30;38.70
60848;DHT22;46681;47.696;9.140;2023-06-05T13:12:53;29.60;38.30
60848;DHT22;46681;47.696;9.140;2023-06-05T13:15:46;29.90;37.50
60848;DHT22;46681;47.696;9.140;2023-06-05T13:18:57;30.10;38.00
60848;DHT22;46681;47.696;9.140;2023-06-05T13:21:40;30.30;37.60
60848;DHT22;46681;47.696;9.140;2023-06-05T13:24:05;30.20;37.40
60848;DHT22;46681;47.696;9.140;2023-06-05T13:32:54;30.00;37.20
60848;DHT22;46681;47.696;9.140;2023-06-05T13:38:46;30.10;37.10
60848;DHT22;46681;47.696;9.140;2023-06-05T13:44:15;30.30;36.30
60848;DHT22;46681;47.696;9.140;2023-06-05T13:47:16;30.40;36.40
60848;DHT22;46681;47.696;9.140;2023-06-05T14:05:42;30.50;36.30
60848;DHT22;46681;47.696;9.140;2023-06-05T14:08:21;30.40;35.40
60848;DHT22;46681;47.696;9.140;2023-06-05T14:11:34;30.30;36.30
60848;DHT22;46681;47.696;9.140;2023-06-05T14:14:49;30.40;35.80
60848;DHT22;46681;47.696;9.140;2023-06-05T14:17:49;30.40;35.70
60848;DHT22;46681;47.696;9.140;2023-06-05T14:20:40;30.40;36.00
60848;DHT22;46681;47.696;9.140;2023-06-05T14:26:38;30.50;35.30
60848;DHT22;46681;47.696;9.140;2023-06-05T14:35:53;30.60;36.90
60848;DHT22;46681;47.696;9.140;2023-06-05T14:38:47;30.60;37.30
60848;DHT22;46681;47.696;9.140;2023-06-05T14:41:33;30.60;37.20
60848;DHT22;46681;47.696;9.140;2023-06-05T14:44:35;30.50;37.10
60848;DHT22;46681;47.696;9.140;2023-06-05T15:06:25;30.20;37.70
60848;DHT22;46681;47.696;9.140;2023-06-05T15:08:52;30.20;37.70
60848;DHT22;46681;47.696;9.140;2023-06-05T15:17:45;30.10;37.70
60848;DHT22;46681;47.696;9.140;2023-06-05T15:20:56;30.10;37.60
60848;DHT22;46681;47.696;9.140;2023-06-05T15:26:53;29.90;37.30
60848;DHT22;46681;47.696;9.140;2023-06-05T15:29:48;30.00;37.90
60848;DHT22;46681;47.696;9.140;2023-06-05T15:32:24;30.00;37.40
60848;DHT22;46681;47.696;9.140;2023-06-05T15:35:05;29.90;37.30
60848;DHT22;46681;47.696;9.140;2023-06-05T15:40:43;29.80;37.90
60848;DHT22;46681;47.696;9.140;2023-06-05T15:43:23;29.70;37.70
60848;DHT22;46681;47.696;9.140;2023-06-05T15:46:12;29.60;37.80
60848;DHT22;46681;47.696;9.140;2023-06-05T15:51:29;29.50;37.20
60848;DHT22;46681;47.696;9.140;2023-06-05T15:54:14;29.40;37.90
60848;DHT22;46681;47.696;9.140;2023-06-05T15:59:59;29.40;37.30
60848;DHT22;46681;47.696;9.140;2023-06-05T16:02:31;29.30;36.50
60848;DHT22;46681;47.696;9.140;2023-06-05T16:05:22;29.30;36.10
60848;DHT22;46681;47.696;9.140;2023-06-05T16:11:12;29.10;37.90
60848;DHT22;46681;47.696;9.140;2023-06-05T16:19:47;29.00;36.60
60848;DHT22;46681;47.696;9.140;2023-06-05T16:22:41;28.90;37.60
60848;DHT22;46681;47.696;9.140;2023-06-05T16:28:21;28.80;37.80
60848;DHT22;46681;47.696;9.140;2023-06-05T16:30:51;28.80;37.90
60848;DHT22;46681;47.696;9.140;2023-06-05T16:33:43;28.70;37.40
60848;DHT22;46681;47.696;9.140;2023-06-05T16:36:26;28.70;38.20
60848;DHT22;46681;47.696;9.140;2023-06-05T16:39:03;28.60;38.10
60848;DHT22;46681;47.696;9.140;2023-06-05T16:41:43;28.50;38.20
60848;DHT22;46681;47.696;9.140;2023-06-05T16:44:39;28.40;37.10
60848;DHT22;46681;47.696;9.140;2023-06-05T16:50:14;28.30;37.10
60848;DHT22;46681;47.696;9.140;2023-06-05T16:52:48;28.20;38.20
60848;DHT22;46681;47.696;9.140;2023-06-05T16:55:14;28.20;38.00
60848;DHT22;46681;47.696;9.140;2023-06-05T16:57:52;28.10;37.60
60848;DHT22;46681;47.696;9.140;2023-06-05T17:03:46;28.10;37.40
60848;DHT22;46681;47.696;9.140;2023-06-05T17:06:19;28.00;36.60
60848;DHT22;46681;47.696;9.140;2023-06-05T17:08:53;27.90;36.40
60848;DHT22;46681;47.696;9.140;2023-06-05T17:11:29;27.90;37.60
60848;DHT22;46681;47.696;9.140;2023-06-05T17:13:56;27.80;37.60
60848;DHT22;46681;47.696;9.140;2023-06-05T17:16:28;27.80;37.60
60848;DHT22;46681;47.696;9.140;2023-06-05T17:19:19;27.80;37.60
60848;DHT22;46681;47.696;9.140;2023-06-05T17:21:47;27.70;37.70
60848;DHT22;46681;47.696;9.140;2023-06-05T17:24:23;27.70;37.70
60848;DHT22;46681;47.696;9.140;2023-06-05T17:27:00;27.60;38.00
60848;DHT22;46681;47.696;9.140;2023-06-05T17:29:40;27.60;37.90
60848;DHT22;46681;47.696;9.140;2023-06-05T17:32:11;27.50;38.00
60848;DHT22;46681;47.696;9.140;2023-06-05T17:34:38;27.50;38.30
60848;DHT22;46681;47.696;9.140;2023-06-05T17:37:04;27.40;38.30
60848;DHT22;46681;47.696;9.140;2023-06-05T17:39:48;27.40;38.40
60848;DHT22;46681;47.696;9.140;2023-06-05T17:42:13;27.30;38.40
60848;DHT22;46681;47.696;9.140;2023-06-05T17:44:39;27.30;38.90
60848;DHT22;46681;47.696;9.140;2023-06-05T17:47:07;27.20;38.70
60848;DHT22;46681;47.696;9.140;2023-06-05T17:49:33;27.20;38.70
60848;DHT22;46681;47.696;9.140;2023-06-05T17:52:11;27.10;38.60
60848;DHT22;46681;47.696;9.140;2023-06-05T17:54:47;27.10;38.60
60848;DHT22;46681;47.696;9.140;2023-06-05T17:57:16;27.00;38.70
60848;DHT22;46681;47.696;9.140;2023-06-05T17:59:47;26.90;38.90
60848;DHT22;46681;47.696;9.140;2023-06-05T18:02:18;26.90;38.90
60848;DHT22;46681;47.696;9.140;2023-06-05T18:04:44;26.80;38.80
60848;DHT22;46681;47.696;9.140;2023-06-05T18:07:20;26.80;38.90
60848;DHT22;46681;47.696;9.140;2023-06-05T18:09:47;26.70;39.00
60848;DHT22;46681;47.696;9.140;2023-06-05T18:12:18;26.60;39.10
60848;DHT22;46681;47.696;9.140;2023-06-05T18:14:43;26.60;39.10
60848;DHT22;46681;47.696;9.140;2023-06-05T18:17:09;26.50;39.00
60848;DHT22;46681;47.696;9.140;2023-06-05T18:19:37;26.50;39.20
60848;DHT22;46681;47.696;9.140;2023-06-05T18:22:05;26.40;39.10
60848;DHT22;46681;47.696;9.140;2023-06-05T18:24:59;26.30;39.20
60848;DHT22;46681;47.696;9.140;2023-06-05T18:27:26;26.20;39.20
60848;DHT22;46681;47.696;9.140;2023-06-05T18:30:31;26.20;39.20
60848;DHT22;46681;47.696;9.140;2023-06-05T18:32:59;26.10;39.30
60848;DHT22;46681;47.696;9.140;2023-06-05T18:35:44;26.00;39.40
60848;DHT22;46681;47.696;9.140;2023-06-05T18:38:41;26.00;39.50
60848;DHT22;46681;47.696;9.140;2023-06-05T18:41:07;25.90;39.50
60848;DHT22;46681;47.696;9.140;2023-06-05T18:43:41;25.80;39.40
60848;DHT22;46681;47.696;9.140;2023-06-05T18:46:07;25.70;39.50
60848;DHT22;46681;47.696;9.140;2023-06-05T18:48:33;25.70;39.60
60848;DHT22;46681;47.696;9.140;2023-06-05T18:51:35;25.60;39.60
60848;DHT22;46681;47.696;9.140;2023-06-05T18:54:05;25.50;39.80
60848;DHT22;46681;47.696;9.140;2023-06-05T18:56:35;25.50;39.80
60848;DHT22;46681;47.696;9.140;2023-06-05T18:59:15;25.40;39.90
60848;DHT22;46681;47.696;9.140;2023-06-05T19:01:47;25.30;39.90
60848;DHT22;46681;47.696;9.140;2023-06-05T19:04:13;25.20;40.00
60848;DHT22;46681;47.696;9.140;2023-06-05T19:06:38;25.10;40.10
60848;DHT22;46681;47.696;9.140;2023-06-05T19:09:08;25.10;40.30
60848;DHT22;46681;47.696;9.140;2023-06-05T19:11:46;25.00;40.50
60848;DHT22;46681;47.696;9.140;2023-06-05T19:14:11;24.90;40.70
60848;DHT22;46681;47.696;9.140;2023-06-05T19:16:53;24.90;40.70
60848;DHT22;46681;47.696;9.140;2023-06-05T19:19:33;24.80;40.80
60848;DHT22;46681;47.696;9.140;2023-06-05T19:22:06;24.70;40.90
60848;DHT22;46681;47.696;9.140;2023-06-05T19:24:37;24.60;41.00
60848;DHT22;46681;47.696;9.140;2023-06-05T19:27:03;24.50;41.00
60848;DHT22;46681;47.696;9.140;2023-06-05T19:29:31;24.50;41.10
60848;DHT22;46681;47.696;9.140;2023-06-05T19:32:00;24.40;41.00
60848;DHT22;46681;47.696;9.140;2023-06-05T19:34:33;24.30;41.20
60848;DHT22;46681;47.696;9.140;2023-06-05T19:37:02;24.20;41.70
60848;DHT22;46681;47.696;9.140;2023-06-05T19:39:44;24.20;41.40
60848;DHT22;46681;47.696;9.140;2023-06-05T19:42:10;24.10;41.40
60848;DHT22;46681;47.696;9.140;2023-06-05T19:44:46;24.00;41.50
60848;DHT22;46681;47.696;9.140;2023-06-05T19:47:12;24.00;41.60
60848;DHT22;46681;47.696;9.140;2023-06-05T19:49:48;23.90;41.60
60848;DHT22;46681;47.696;9.140;2023-06-05T19:52:17;23.80;41.70
60848;DHT22;46681;47.696;9.140;2023-06-05T19:54:52;23.70;41.80
60848;DHT22;46681;47.696;9.140;2023-06-05T19:57:17;23.70;41.90
60848;DHT22;46681;47.696;9.140;2023-06-05T19:59:45;23.70;41.90
60848;DHT22;46681;47.696;9.140;2023-06-05T20:02:11;23.50;41.90
60848;DHT22;46681;47.696;9.140;2023-06-05T20:04:36;23.50;42.10
60848;DHT22;46681;47.696;9.140;2023-06-05T20:07:02;23.50;42.10
60848;DHT22;46681;47.696;9.140;2023-06-05T20:09:28;23.40;42.00
60848;DHT22;46681;47.696;9.140;2023-06-05T20:11:57;23.30;42.10
60848;DHT22;46681;47.696;9.140;2023-06-05T20:14:24;23.20;42.30
60848;DHT22;46681;47.696;9.140;2023-06-05T20:16:53;23.20;42.50
60848;DHT22;46681;47.696;9.140;2023-06-05T20:19:27;23.20;42.50
60848;DHT22;46681;47.696;9.140;2023-06-05T20:22:00;23.10;42.50
60848;DHT22;46681;47.696;9.140;2023-06-05T20:24:26;23.00;42.50
60848;DHT22;46681;47.696;9.140;2023-06-05T20:26:51;22.90;42.70
60848;DHT22;46681;47.696;9.140;2023-06-05T20:29:17;22.90;42.80
60848;DHT22;46681;47.696;9.140;2023-06-05T20:31:43;22.80;42.70
60848;DHT22;46681;47.696;9.140;2023-06-05T20:34:11;22.80;42.80
60848;DHT22;46681;47.696;9.140;2023-06-05T20:36:47;22.80;42.80
60848;DHT22;46681;47.696;9.140;2023-06-05T20:39:13;22.60;42.90
60848;DHT22;46681;47.696;9.140;2023-06-05T20:41:46;22.60;43.00
60848;DHT22;46681;47.696;9.140;2023-06-05T20:44:12;22.60;42.90
60848;DHT22;46681;47.696;9.140;2023-06-05T20:46:43;22.50;43.20
60848;DHT22;46681;47.696;9.140;2023-06-05T20:49:20;22.50;42.90
60848;DHT22;46681;47.696;9.140;2023-06-05T20:51:46;22.40;43.00
60848;DHT22;46681;47.696;9.140;2023-06-05T20:54:13;22.30;43.10
60848;DHT22;46681;47.696;9.140;2023-06-05T20:56:42;22.30;43.00
60848;DHT22;46681;47.696;9.140;2023-06-05T20:59:08;22.30;43.40
60848;DHT22;46681;47.696;9.140;2023-06-05T21:01:37;22.20;43.60
60848;DHT22;46681;47.696;9.140;2023-06-05T21:04:08;22.20;43.30
60848;DHT22;46681;47.696;9.140;2023-06-05T21:06:36;22.10;43.20
60848;DHT22;46681;47.696;9.140;2023-06-05T21:09:02;22.10;43.40
60848;DHT22;46681;47.696;9.140;2023-06-05T21:11:27;22.10;43.60
60848;DHT22;46681;47.696;9.140;2023-06-05T21:13:53;22.00;43.50